Time;durP1;ratioP1;P1;durP2;ratioP2;P2;SDS_P1;SDS_P2;PMS_P1;PMS_P2;Temp;Humidity;BMP_temperature;BMP_pressure;BME280_temperature;BME280_humidity;BME280_pressure;Samples;Min_cycle;Max_cycle;Signal;HPM_P1;HPM_P2
2023/10/06 00:02:08;;;;;;;30.70;2.70;;;;;;;21.21;56.02;100382.63;7310455;19;131192;-36
2023/10/06 00:04:38;;;;;;;45.17;3.83;;;;;;;21.20;55.97;100378.34;7311420;19;129341;-38
2023/10/06 00:07:07;;;;;;;61.42;4.25;;;;;;;21.22;55.29;100386.09;7311782;19;129291;-38
2023/10/06 00:09:33;;;;;;;46.55;3.65;;;;;;;21.19;55.89;100381.91;7310221;19;130867;-39
2023/10/06 00:11:59;;;;;;;39.60;3.38;;;;;;;21.18;55.97;100380.25;7310681;19;129721;-39
2023/10/06 00:14:40;;;;;;;41.97;3.03;;;;;;;21.19;56.03;100379.28;7310688;19;129232;-39
2023/10/06 00:17:19;;;;;;;46.30;3.30;;;;;;;21.18;56.50;100375.03;7310779;19;129016;-39
2023/10/06 00:19:45;;;;;;;90.35;5.25;;;;;;;21.19;55.72;100374.06;7310507;19;130644;-39
2023/10/06 00:24:37;;;;;;;41.05;3.22;;;;;;;21.18;55.62;100374.19;7311208;19;129127;-39
2023/10/06 00:27:03;;;;;;;31.30;2.88;;;;;;;21.19;56.28;100381.91;7310603;19;130504;-39
2023/10/06 00:29:29;;;;;;;51.40;3.70;;;;;;;21.19;56.03;100374.06;7310630;19;130194;-39
2023/10/06 00:32:21;;;;;;;22.87;2.50;;;;;;;21.19;55.79;100379.28;7311373;19;130919;-37
2023/10/06 00:34:45;;;;;;;37.05;2.70;;;;;;;21.20;55.97;100373.13;7310349;19;129838;-39
2023/10/06 00:37:11;;;;;;;25.55;2.45;;;;;;;21.21;55.89;100376.56;7308721;19;129431;-39
2023/10/06 00:39:37;;;;;;;47.25;3.45;;;;;;;21.21;55.71;100373.94;7310416;19;130256;-38
2023/10/06 00:42:06;;;;;;;91.25;4.97;;;;;;;21.21;56.29;100377.41;7311149;19;130984;-38
2023/10/06 00:44:32;;;;;;;46.05;3.55;;;;;;;21.22;55.91;100371.19;7315821;19;129452;-39
2023/10/06 00:46:58;;;;;;;42.92;2.97;;;;;;;21.22;56.04;100370.38;7310283;19;130482;-40
2023/10/06 00:49:25;;;;;;;75.65;4.88;;;;;;;21.22;56.41;100376.44;7313889;19;129392;-37
2023/10/06 00:51:53;;;;;;;98.10;5.47;;;;;;;21.22;55.65;100375.63;7315254;19;130254;-38
2023/10/06 00:54:19;;;;;;;71.65;4.55;;;;;;;21.19;55.65;100375.88;7318285;19;129605;-37
2023/10/06 00:56:46;;;;;;;43.80;3.23;;;;;;;21.20;56.44;100377.50;7310868;19;131117;-38
2023/10/06 00:59:12;;;;;;;;;;;;;;;21.21;57.66;100380.00;7313883;19;130254;-39
2023/10/06 01:01:39;;;;;;;70.30;4.55;;;;;;;21.23;56.40;100378.13;7316661;19;130413;-39
2023/10/06 01:06:36;;;;;;;;;;;;;;;21.27;57.19;100379.53;7316942;19;128958;-39
2023/10/06 01:09:16;;;;;;;36.75;3.15;;;;;;;21.23;56.26;100372.88;7313853;19;131107;-39
2023/10/06 01:11:47;;;;;;;33.70;3.03;;;;;;;21.21;56.56;100374.78;7316934;19;130456;-39
2023/10/06 01:14:21;;;;;;;95.40;5.82;;;;;;;21.20;56.74;100373.13;7315577;19;129332;-37
2023/10/06 01:16:49;;;;;;;61.95;4.00;;;;;;;21.22;56.05;100371.19;7316371;19;129267;-34
2023/10/06 01:19:17;;;;;;;50.38;3.85;;;;;;;21.20;55.89;100375.75;7313459;19;130298;-36
2023/10/06 01:21:47;;;;;;;12.25;2.35;;;;;;;21.21;55.83;100372.16;7316142;19;130849;-39
2023/10/06 01:24:24;;;;;;;41.95;3.20;;;;;;;21.21;56.18;100376.56;7315044;19;129049;-37
2023/10/06 01:26:51;;;;;;;62.23;4.40;;;;;;;21.19;56.11;100371.44;7315865;19;129202;-38
2023/10/06 01:29:17;;;;;;;64.13;4.60;;;;;;;21.21;55.66;100374.78;7311763;19;130215;-38
2023/10/06 01:31:43;;;;;;;31.92;3.03;;;;;;;21.10;56.07;100350.41;7316025;19;129135;-39
2023/10/06 01:34:11;;;;;;;;;;;;;;;21.24;57.18;100371.91;7316030;19;129273;-36
2023/10/06 01:36:39;;;;;;;78.78;4.90;;;;;;;21.20;56.41;100367.91;7313679;19;129303;-39
2023/10/06 01:39:18;;;;;;;49.08;3.58;;;;;;;21.21;56.31;100366.94;7313434;19;130169;-39
2023/10/06 01:41:46;;;;;;;51.83;4.07;;;;;;;21.21;56.00;100374.78;7315708;19;129724;-36
2023/10/06 01:44:15;;;;;;;35.95;2.88;;;;;;;21.20;56.42;100364.44;7316032;19;129169;-31
2023/10/06 01:46:43;;;;;;;30.17;2.60;;;;;;;21.21;55.90;100359.09;7314369;19;129629;-38
2023/10/06 01:49:11;;;;;;;65.03;4.40;;;;;;;21.22;55.96;100355.50;7312379;19;130213;-38
2023/10/06 01:51:38;;;;;;;27.60;2.50;;;;;;;21.22;55.88;100357.31;7312797;19;132586;-37
2023/10/06 01:54:12;;;;;;;37.60;3.22;;;;;;;21.24;55.91;100353.63;7315808;19;128888;-37
2023/10/06 01:56:44;;;;;;;19.80;2.38;;;;;;;21.24;55.83;100358.84;7315083;19;129569;-38
2023/10/06 01:59:14;;;;;;;8.15;1.90;;;;;;;21.24;56.17;100358.84;7311957;19;129161;-39
2023/10/06 02:01:41;;;;;;;87.88;5.22;;;;;;;21.23;55.86;100370.28;7314537;19;131505;-37
2023/10/06 02:04:10;;;;;;;27.38;2.50;;;;;;;21.24;56.08;100365.84;7312635;19;128882;-40
2023/10/06 02:06:35;;;;;;;61.72;4.38;;;;;;;21.23;56.18;100369.44;7313917;19;128868;-39
2023/10/06 02:09:05;;;;;;;37.70;3.03;;;;;;;21.22;56.01;100359.94;7312722;19;130140;-39
2023/10/06 02:11:31;;;;;;;76.22;4.65;;;;;;;21.19;56.38;100353.13;7311340;19;130571;-39
2023/10/06 02:13:57;;;;;;;70.93;4.85;;;;;;;21.23;55.87;100353.72;7316613;19;129161;-39
2023/10/06 02:16:26;;;;;;;76.55;5.28;;;;;;;21.22;56.06;100354.69;7313973;19;129102;-37
2023/10/06 02:18:54;;;;;;;31.65;2.90;;;;;;;21.25;55.77;100352.69;7312640;19;130324;-39
2023/10/06 02:21:24;;;;;;;75.25;4.97;;;;;;;21.22;55.82;100350.28;7313979;19;130447;-39
2023/10/06 02:23:51;;;;;;;70.75;4.47;;;;;;;21.23;55.82;100346.72;7314230;19;129230;-37
2023/10/06 02:26:16;;;;;;;;;;;;;;;21.17;57.47;100331.50;7314877;19;128994;-37
2023/10/06 02:28:48;;;;;;;32.47;2.78;;;;;;;21.25;55.85;100344.84;7311543;19;130317;-40
2023/10/06 02:31:14;;;;;;;38.45;3.13;;;;;;;21.11;55.88;100326.75;7312285;19;130690;-38
2023/10/06 02:33:40;;;;;;;77.28;5.00;;;;;;;21.25;55.60;100354.47;7314144;19;129818;-39
2023/10/06 02:36:23;;;;;;;41.38;3.17;;;;;;;21.22;56.29;100354.69;7316095;19;128915;-39
2023/10/06 02:38:52;;;;;;;35.20;3.17;;;;;;;21.23;55.92;100357.19;7312243;19;130250;-36
2023/10/06 02:41:25;;;;;;;41.10;2.97;;;;;;;21.11;56.71;100334.59;7314928;19;130929;-39
2023/10/06 02:43:52;;;;;;;33.88;2.65;;;;;;;21.20;56.12;100352.22;7312704;19;129317;-39
2023/10/06 02:46:23;;;;;;;111.15;6.55;;;;;;;21.22;56.22;100350.28;7312730;19;129338;-39
2023/10/06 02:48:49;;;;;;;35.67;2.83;;;;;;;21.23;55.77;100351.97;7312205;19;132639;-39
2023/10/06 02:51:20;;;;;;;38.80;3.50;;;;;;;21.21;56.26;100348.63;7311421;19;130719;-38
2023/10/06 02:53:50;;;;;;;54.70;3.80;;;;;;;21.24;56.43;100343.16;7313338;19;130667;-40
2023/10/06 02:56:21;;;;;;;80.03;5.30;;;;;;;21.24;56.48;100345.78;7313836;19;130486;-38
2023/10/06 02:58:46;;;;;;;75.22;4.50;;;;;;;21.20;56.56;100346.97;7310764;19;130434;-38
2023/10/06 03:01:11;;;;;;;38.70;2.72;;;;;;;21.23;56.28;100349.34;7312705;19;130291;-37
2023/10/06 03:03:37;;;;;;;28.77;2.80;;;;;;;21.23;56.24;100340.66;7312705;19;129665;-39
2023/10/06 03:06:07;;;;;;;35.80;2.97;;;;;;;21.23;56.35;100341.50;7311759;19;129269;-39
2023/10/06 03:08:35;;;;;;;96.30;6.00;;;;;;;21.23;56.23;100344.13;7311129;19;130229;-39
2023/10/06 03:11:01;;;;;;;37.80;3.35;;;;;;;21.22;55.93;100347.66;7312772;19;130290;-38
2023/10/06 03:13:33;;;;;;;59.80;4.45;;;;;;;21.23;56.18;100354.56;7314123;19;129235;-39
2023/10/06 03:15:59;;;;;;;35.28;3.00;;;;;;;21.22;56.10;100352.91;7312230;19;130230;-39
2023/10/06 03:18:25;;;;;;;109.30;6.55;;;;;;;21.22;55.93;100352.91;7309371;19;129624;-41
2023/10/06 03:20:57;;;;;;;43.10;3.33;;;;;;;21.10;56.48;100330.34;7313157;19;131494;-34
2023/10/06 03:23:43;;;;;;;54.03;3.95;;;;;;;21.24;56.10;100352.78;7313730;19;129288;-37
2023/10/06 03:26:45;;;;;;;38.20;2.95;;;;;;;21.23;56.16;100357.19;7312421;19;129593;-35
2023/10/06 03:29:11;;;;;;;42.70;3.25;;;;;;;21.24;55.93;100358.84;7310264;19;131124;-38
2023/10/06 03:31:45;;;;;;;50.50;3.85;;;;;;;21.23;56.25;100354.56;7309664;19;130946;-38
2023/10/06 03:34:16;;;;;;;41.13;3.00;;;;;;;21.23;56.54;100353.72;7313755;19;129046;-39
2023/10/06 03:36:51;;;;;;;73.38;4.38;;;;;;;21.25;56.21;100351.84;7310309;19;129565;-38
2023/10/06 03:39:27;;;;;;;77.93;4.80;;;;;;;21.24;56.91;100360.63;7310045;19;130266;-39
2023/10/06 03:41:55;;;;;;;45.17;3.20;;;;;;;21.22;55.97;100365.97;7312849;19;130346;-37
2023/10/06 03:44:26;;;;;;;48.47;3.85;;;;;;;21.26;56.12;100367.41;7311844;19;128932;-38
2023/10/06 03:46:55;;;;;;;41.65;3.13;;;;;;;21.27;56.18;100363.03;7310700;19;129084;-39
2023/10/06 03:49:20;;;;;;;39.90;3.15;;;;;;;21.25;56.08;100365.75;7309846;19;130620;-38
2023/10/06 03:51:47;;;;;;;83.18;4.90;;;;;;;21.25;55.98;100364.91;7310164;19;130335;-39
2023/10/06 03:54:12;;;;;;;35.88;2.97;;;;;;;21.24;56.11;100369.31;7313132;19;129384;-35
2023/10/06 03:56:38;;;;;;;47.37;3.63;;;;;;;21.24;56.42;100363.22;7312256;19;128937;-39
2023/10/06 03:59:12;;;;;;;49.33;3.67;;;;;;;21.24;56.49;100361.47;7309302;19;131402;-38
2023/10/06 04:01:38;;;;;;;87.88;5.13;;;;;;;21.11;56.73;100347.66;7311300;19;130455;-38
2023/10/06 04:04:05;;;;;;;36.10;2.88;;;;;;;21.22;56.22;100371.19;7312007;19;128957;-39
2023/10/06 04:06:34;;;;;;;73.63;5.20;;;;;;;21.18;55.96;100358.50;7309993;19;129065;-39
2023/10/06 04:09:00;;;;;;;51.97;3.72;;;;;;;21.25;56.39;100371.00;7309090;19;131355;-39
2023/10/06 04:11:31;;;;;;;101.55;6.03;;;;;;;21.26;55.89;100367.41;7309501;19;130356;-38
2023/10/06 04:13:57;;;;;;;42.53;3.38;;;;;;;21.25;56.30;100365.75;7310065;19;129078;-36
2023/10/06 04:16:23;;;;;;;67.65;4.55;;;;;;;21.26;55.90;100367.41;7310128;19;128804;-39
2023/10/06 04:18:49;;;;;;;48.50;3.67;;;;;;;21.26;56.23;100359.56;7307778;19;130213;-38
2023/10/06 04:21:16;;;;;;;77.22;4.65;;;;;;;21.23;56.37;100354.56;7310480;19;130275;-38
2023/10/06 04:23:44;;;;;;;35.28;3.00;;;;;;;21.26;56.56;100367.41;7310760;19;129115;-35
2023/10/06 04:26:14;;;;;;;31.83;3.08;;;;;;;21.24;56.61;100358.84;7310533;19;129377;-36
2023/10/06 04:28:39;;;;;;;64.78;4.63;;;;;;;21.26;55.96;100356.94;7308065;19;130875;-37
2023/10/06 04:31:07;;;;;;;60.72;4.32;;;;;;;21.25;56.68;100359.69;7308260;19;130514;-38
2023/10/06 04:33:33;;;;;;;107.55;6.75;;;;;;;21.25;56.01;100359.69;7305410;19;128996;-37
2023/10/06 04:36:07;;;;;;;63.13;4.25;;;;;;;21.20;55.98;100341.75;7308736;19;129565;-39
2023/10/06 04:38:40;;;;;;;58.22;3.92;;;;;;;21.25;56.61;100365.75;7304811;19;130259;-39
2023/10/06 04:41:09;;;;;;;74.97;4.78;;;;;;;21.25;56.51;100376.22;7309275;19;130387;-37
2023/10/06 04:43:36;;;;;;;113.97;6.25;;;;;;;21.27;55.96;100374.28;7309788;19;129348;-39
2023/10/06 04:46:05;;;;;;;49.50;3.50;;;;;;;21.29;56.18;100372.41;7311278;19;129191;-39
2023/10/06 04:48:31;;;;;;;64.28;4.30;;;;;;;21.28;56.45;100380.38;7308634;19;129459;-38
2023/10/06 04:50:56;;;;;;;29.93;2.60;;;;;;;21.26;56.63;100377.88;7308964;19;130422;-37
2023/10/06 04:53:22;;;;;;;81.70;4.97;;;;;;;21.29;56.44;100371.56;7310391;19;130075;-38
2023/10/06 04:55:48;;;;;;;60.60;4.10;;;;;;;21.26;56.58;100370.03;7311334;19;130620;-35
2023/10/06 04:58:13;;;;;;;18.67;2.23;;;;;;;21.16;56.24;100358.59;7307218;19;130173;-39
2023/10/06 05:00:39;;;;;;;66.13;4.47;;;;;;;21.26;55.89;100377.88;7308475;19;129402;-39
2023/10/06 05:03:06;;;;;;;80.93;4.80;;;;;;;21.27;55.65;100379.53;7310011;19;129098;-39
2023/10/06 05:05:37;;;;;;;;;;;;;;;21.21;57.43;100359.09;7310487;19;129650;-37
2023/10/06 05:08:04;;;;;;;33.38;3.00;;;;;;;21.26;55.98;100377.88;7307900;19;130159;-39
2023/10/06 05:10:31;;;;;;;58.88;4.50;;;;;;;21.12;56.13;100356.34;7308357;19;130442;-40
2023/10/06 05:12:56;;;;;;;57.03;3.80;;;;;;;21.13;56.69;100361.47;7310135;19;129425;-37
2023/10/06 05:15:26;;;;;;;61.50;3.85;;;;;;;21.27;56.28;100366.44;7304770;19;130049;-37
2023/10/06 05:17:58;;;;;;;28.75;2.67;;;;;;;21.28;56.48;100375.13;7307039;19;130317;-39
2023/10/06 05:20:31;;;;;;;51.33;3.83;;;;;;;21.30;56.48;100373.25;7303638;19;132598;-39
2023/10/06 05:23:10;;;;;;;47.75;3.40;;;;;;;21.29;55.80;100372.41;7308716;19;128978;-37
2023/10/06 05:25:36;;;;;;;88.03;5.35;;;;;;;21.27;56.26;100383.94;7306286;19;129236;-36
2023/10/06 05:28:03;;;;;;;74.32;4.60;;;;;;;21.27;56.15;100376.91;7315040;19;130385;-38
2023/10/06 05:30:31;;;;;;;67.13;4.72;;;;;;;21.27;56.23;100379.53;7308441;19;130968;-38
2023/10/06 05:32:58;;;;;;;45.05;3.05;;;;;;;21.26;56.31;100375.25;7314363;19;129582;-37
2023/10/06 05:35:24;;;;;;;35.88;2.88;;;;;;;21.26;56.40;100380.50;7308728;19;129247;-37
2023/10/06 05:37:50;;;;;;;;;;;;;;;21.30;58.15;100384.53;7314406;19;129576;-38
2023/10/06 05:40:16;;;;;;;51.70;3.72;;;;;;;21.29;56.65;100385.47;7314170;19;130002;-38
2023/10/06 05:42:42;;;;;;;49.15;3.95;;;;;;;21.28;56.49;100388.22;7315060;19;129618;-41
2023/10/06 05:45:20;;;;;;;64.05;4.30;;;;;;;21.27;56.68;100387.38;7314142;19;129419;-37
2023/10/06 05:47:47;;;;;;;93.18;5.32;;;;;;;21.26;56.26;100393.56;7313735;19;130263;-40
2023/10/06 05:50:28;;;;;;;37.17;2.75;;;;;;;21.26;57.91;100397.94;7315976;19;130479;-34
2023/10/06 05:52:57;;;;;;;41.85;3.13;;;;;;;21.25;56.28;100394.53;7315979;19;129417;-39
2023/10/06 05:55:24;;;;;;;15.25;2.47;;;;;;;21.15;56.82;100380.50;7313233;19;129121;-39
2023/10/06 05:57:55;;;;;;;13.27;1.58;;;;;;;21.27;56.55;100397.84;7311965;19;130318;-39
2023/10/06 06:00:26;;;;;;;78.38;5.40;;;;;;;21.27;56.89;100397.03;7310860;19;130305;-39
2023/10/06 06:02:53;;;;;;;67.70;4.53;;;;;;;21.27;56.29;100397.84;7312838;19;129009;-38
2023/10/06 06:05:18;;;;;;;40.85;3.10;;;;;;;21.17;56.35;100378.56;7313451;19;129393;-39
2023/10/06 06:07:44;;;;;;;69.72;4.82;;;;;;;21.27;56.98;100390.00;7310630;19;129628;-39
2023/10/06 06:10:17;;;;;;;82.60;4.82;;;;;;;21.30;56.33;100400.25;7314499;19;130552;-39
2023/10/06 06:12:42;;;;;;;85.15;5.28;;;;;;;21.27;56.26;100395.22;7311347;19;130578;-37
2023/10/06 06:15:11;;;;;;;54.42;3.72;;;;;;;21.25;56.11;100391.06;7312781;19;129059;-35
2023/10/06 06:17:36;;;;;;;45.80;3.50;;;;;;;21.29;55.99;100393.31;7311250;19;130871;-38
2023/10/06 06:20:02;;;;;;;57.03;3.60;;;;;;;21.29;56.65;100393.31;7312688;19;130431;-44
2023/10/06 06:22:29;;;;;;;61.33;3.87;;;;;;;21.30;56.47;100400.25;7314254;19;129109;-35
2023/10/06 06:24:55;;;;;;;67.22;4.15;;;;;;;21.30;56.22;100405.47;7313608;19;129248;-39
2023/10/06 06:27:22;;;;;;;12.10;1.83;;;;;;;21.29;56.37;100406.41;7312544;19;130980;-38
2023/10/06 06:29:49;;;;;;;61.47;4.20;;;;;;;21.28;56.47;100412.59;7312016;19;131455;-38
2023/10/06 06:32:15;;;;;;;107.78;6.55;;;;;;;21.17;56.00;100388.22;7307027;19;129821;-38
2023/10/06 06:34:41;;;;;;;99.93;6.40;;;;;;;21.28;56.34;100407.38;7308014;19;130842;-38
2023/10/06 06:37:09;;;;;;;73.17;4.70;;;;;;;21.27;56.34;100410.91;7307821;19;129817;-37
2023/10/06 06:39:37;;;;;;;81.30;5.00;;;;;;;21.28;56.45;100407.38;7311222;19;130562;-38
2023/10/06 06:42:05;;;;;;;62.63;4.57;;;;;;;21.20;56.47;100398.44;7313492;19;129192;-38
2023/10/06 06:44:31;;;;;;;35.92;2.90;;;;;;;21.29;56.29;100414.25;7312522;19;129213;-38
2023/10/06 06:46:56;;;;;;;84.47;5.73;;;;;;;21.28;56.74;100415.22;7309997;19;130748;-40
2023/10/06 06:49:23;;;;;;;55.63;3.83;;;;;;;21.31;56.29;100417.59;7307905;19;130350;-39
2023/10/06 06:51:48;;;;;;;89.10;5.22;;;;;;;21.28;55.94;100396.91;7310529;19;129846;-37
2023/10/06 06:54:14;;;;;;;71.60;4.45;;;;;;;21.20;56.96;100382.75;7308883;19;129192;-38
2023/10/06 06:56:39;;;;;;;86.27;5.47;;;;;;;21.29;56.73;100403.78;7308686;19;130122;-39
2023/10/06 06:59:05;;;;;;;80.93;5.05;;;;;;;21.30;56.25;100404.63;7307824;19;131102;-37
2023/10/06 07:01:33;;;;;;;212.18;12.02;;;;;;;21.30;57.02;100400.25;7307559;19;129501;-37
2023/10/06 07:04:00;;;;;;;30.98;2.47;;;;;;;21.31;56.59;100401.06;7311897;19;129345;-39
2023/10/06 07:06:26;;;;;;;102.75;6.50;;;;;;;21.29;56.69;100409.00;7309084;19;130571;-39
2023/10/06 07:08:51;;;;;;;114.70;6.88;;;;;;;21.29;56.87;100408.16;7305013;19;131262;-38
2023/10/06 07:11:17;;;;;;;63.23;4.33;;;;;;;21.30;56.74;100410.69;7310039;19;130248;-39
2023/10/06 07:13:42;;;;;;;54.28;4.10;;;;;;;21.30;56.73;100410.69;7311804;19;129861;-38
2023/10/06 07:16:09;;;;;;;55.60;4.13;;;;;;;21.31;56.26;100399.28;7308831;19;130178;-39
2023/10/06 07:18:36;;;;;;;241.75;13.55;;;;;;;21.31;56.02;100391.44;7300438;19;131233;-39
2023/10/06 07:21:07;;;;;;;39.08;3.20;;;;;;;21.30;56.90;100392.38;7310714;19;131412;-39
2023/10/06 07:23:34;;;;;;;35.72;3.00;;;;;;;21.30;56.13;100400.25;7311735;19;129410;-38
2023/10/06 07:26:00;;;;;;;28.83;2.78;;;;;;;21.31;56.45;100407.13;7303780;19;130787;-39
2023/10/06 07:28:27;;;;;;;73.73;4.47;;;;;;;21.28;56.23;100402.13;7307274;19;130450;-37
2023/10/06 07:30:52;;;;;;;68.22;4.32;;;;;;;21.31;56.52;100406.28;7307174;19;129410;-39
2023/10/06 07:33:18;;;;;;;57.40;4.10;;;;;;;21.33;56.28;100389.53;7310271;19;128956;-38
2023/10/06 07:35:45;;;;;;;93.03;5.80;;;;;;;21.35;56.64;100398.09;7309733;19;130298;-37
2023/10/06 07:38:10;;;;;;;57.88;3.92;;;;;;;21.32;55.78;100397.50;7309805;19;130538;-39
2023/10/06 07:40:37;;;;;;;45.30;3.60;;;;;;;21.27;56.29;100384.75;7308933;19;129289;-36
2023/10/06 07:43:05;;;;;;;44.17;3.57;;;;;;;21.21;56.22;100373.94;7311823;19;128864;-39
2023/10/06 07:45:31;;;;;;;64.00;4.40;;;;;;;21.30;55.89;100405.47;7308457;19;130191;-39
2023/10/06 07:47:57;;;;;;;;;;;;;;;21.33;57.64;100393.91;7302806;19;130273;-40
2023/10/06 07:50:22;;;;;;;83.32;5.22;;;;;;;21.29;55.88;100388.09;7308609;19;129321;-34
2023/10/06 07:52:48;;;;;;;63.05;4.72;;;;;;;21.29;56.37;100393.31;7310700;19;129296;-39
2023/10/06 07:55:15;;;;;;;32.63;2.90;;;;;;;21.17;56.39;100377.75;7311792;19;129656;-39
2023/10/06 07:57:42;;;;;;;87.28;5.72;;;;;;;21.36;56.46;100401.53;7308605;19;130727;-40
2023/10/06 08:00:17;;;;;;;71.93;4.78;;;;;;;21.28;56.49;100396.91;7311640;19;129032;-39
2023/10/06 08:02:43;;;;;;;58.72;4.57;;;;;;;21.32;55.57;100397.50;7308689;19;128940;-37
2023/10/06 08:05:11;;;;;;;64.00;4.75;;;;;;;21.30;55.50;100395.00;7302246;19;130601;-37
2023/10/06 08:07:38;;;;;;;62.35;4.43;;;;;;;21.31;55.06;100396.66;7306842;19;130375;-38
2023/10/06 08:10:05;;;;;;;71.35;4.63;;;;;;;21.33;54.75;100402.59;7305954;19;129167;-39
2023/10/06 08:12:33;;;;;;;33.78;3.25;;;;;;;21.29;55.42;100398.56;7309024;19;128990;-36
2023/10/06 08:15:00;;;;;;;59.70;4.45;;;;;;;21.31;55.31;100404.50;7307968;19;129844;-39
2023/10/06 08:17:27;;;;;;;37.00;3.17;;;;;;;21.38;55.77;100418.78;7308399;19;130359;-40
2023/10/06 08:19:54;;;;;;;112.40;6.80;;;;;;;21.38;55.52;100420.56;7307830;19;131170;-39
2023/10/06 08:22:22;;;;;;;38.53;3.55;;;;;;;21.25;55.43;100399.75;7309662;19;129593;-38
2023/10/06 08:24:47;;;;;;;106.53;7.30;;;;;;;21.41;55.71;100434.25;7307408;19;130143;-38
2023/10/06 08:27:13;;;;;;;38.08;3.10;;;;;;;21.41;55.36;100431.63;7305325;19;130312;-36
2023/10/06 08:29:38;;;;;;;117.05;6.63;;;;;;;21.40;54.76;100424.72;7307876;19;128974;-39
2023/10/06 08:32:05;;;;;;;142.55;8.60;;;;;;;21.37;55.11;100424.94;7305244;19;130009;-39
2023/10/06 08:34:30;;;;;;;53.50;4.00;;;;;;;21.29;55.09;100397.72;7307393;19;130963;-38
2023/10/06 08:36:56;;;;;;;35.28;2.85;;;;;;;21.41;54.82;100413.31;7309014;19;130784;-39
2023/10/06 08:39:21;;;;;;;68.38;4.78;;;;;;;21.35;55.07;100408.56;7305969;19;129323;-37
2023/10/06 08:41:52;;;;;;;88.47;5.90;;;;;;;21.37;55.13;100383.09;7306696;19;129504;-40
2023/10/06 08:44:19;;;;;;;50.17;4.15;;;;;;;21.34;54.66;100365.03;7307297;19;131000;-39
2023/10/06 08:46:44;;;;;;;78.72;5.38;;;;;;;21.36;55.34;100359.69;7306117;19;130429;-35
2023/10/06 08:49:19;;;;;;;109.03;6.28;;;;;;;21.36;55.02;100373.59;7301328;19;129604;-38
2023/10/06 08:51:49;;;;;;;129.00;7.75;;;;;;;21.37;55.04;100371.81;7305606;19;130161;-38
2023/10/06 08:54:15;;;;;;;68.13;4.90;;;;;;;21.38;54.93;100371.69;7308201;19;129726;-39
2023/10/06 08:56:40;;;;;;;93.93;5.82;;;;;;;21.31;54.83;100353.97;7305725;19;130471;-37
2023/10/06 08:59:05;;;;;;;76.60;4.73;;;;;;;21.41;54.68;100371.44;7307526;19;128699;-37
2023/10/06 09:01:32;;;;;;;47.72;3.47;;;;;;;21.35;54.46;100369.31;7316512;19;130635;-37
2023/10/06 09:04:04;;;;;;;52.70;3.90;;;;;;;21.32;55.51;100372.16;7314827;19;131988;-35
2023/10/06 09:06:29;;;;;;;203.48;12.75;;;;;;;21.33;54.90;100363.38;7305568;19;131628;-42
2023/10/06 09:08:55;;;;;;;104.75;6.57;;;;;;;21.31;55.01;100360.03;7311561;19;129276;-37
2023/10/06 09:11:41;;;;;;;99.03;6.18;;;;;;;21.31;55.97;100365.28;7311681;19;130688;-36
2023/10/06 09:14:11;;;;;;;51.83;4.15;;;;;;;21.28;54.87;100362.91;7306966;19;134801;-37
2023/10/06 09:16:51;;;;;;;67.05;4.43;;;;;;;21.25;55.85;100344.00;7312089;19;131352;-38
2023/10/06 09:19:17;;;;;;;28.70;2.97;;;;;;;21.30;54.37;100345.31;7311812;19;130590;-39
2023/10/06 09:22:12;;;;;;;62.10;4.32;;;;;;;21.29;56.30;100330.56;7314278;19;129397;-38
2023/10/06 09:24:39;;;;;;;46.38;3.63;;;;;;;21.12;53.75;100307.50;7307838;19;130447;-39
2023/10/06 09:27:20;;;;;;;76.95;4.85;;;;;;;21.22;55.18;100321.50;7313000;19;131206;-36
2023/10/06 09:29:45;;;;;;;103.25;6.25;;;;;;;21.18;53.49;100298.34;7313949;19;130982;-39
2023/10/06 09:32:21;;;;;;;59.55;3.95;;;;;;;21.22;54.90;100297.16;7312764;19;128893;-39
2023/10/06 09:34:50;;;;;;;111.53;7.03;;;;;;;21.10;53.52;100277.19;7309611;19;130687;-35
2023/10/06 09:37:21;;;;;;;71.78;4.35;;;;;;;21.23;55.13;100278.75;7309550;19;130976;-39
2023/10/06 09:40:15;;;;;;;91.30;5.72;;;;;;;21.28;55.36;100279.22;7311681;19;129717;-40
2023/10/06 09:42:46;;;;;;;19.45;2.60;;;;;;;21.29;54.68;100283.47;7309890;19;129476;-34
2023/10/06 09:45:15;;;;;;;50.13;3.67;;;;;;;21.16;54.03;100261.88;7313406;19;129672;-39
2023/10/06 09:47:50;;;;;;;87.65;5.47;;;;;;;21.28;54.34;100284.44;7309039;19;130674;-35
2023/10/06 09:50:19;;;;;;;77.43;5.32;;;;;;;21.30;54.47;100279.94;7315301;19;130830;-40
2023/10/06 09:52:47;;;;;;;42.97;3.35;;;;;;;21.28;53.98;100271.38;7311517;19;129652;-37
2023/10/06 09:55:15;;;;;;;37.45;3.05;;;;;;;21.31;54.06;100278.97;7313405;19;133089;-39
2023/10/06 09:57:42;;;;;;;133.95;7.88;;;;;;;21.27;53.31;100290.59;7303416;19;129889;-37
2023/10/06 10:00:15;;;;;;;67.90;4.63;;;;;;;21.30;53.31;100289.56;7306765;19;130219;-36
2023/10/06 10:02:44;;;;;;;89.15;5.38;;;;;;;21.31;53.84;100306.91;7310361;19;129500;-39
2023/10/06 10:05:11;;;;;;;55.20;4.22;;;;;;;21.17;52.63;100284.44;7309073;19;130612;-39
2023/10/06 10:07:40;;;;;;;;;;;;;;;21.34;55.31;100304.88;7313487;19;129733;-39
2023/10/06 10:10:07;;;;;;;68.30;4.55;;;;;;;21.32;52.80;100304.16;7312747;19;130109;-37
2023/10/06 10:12:57;;;;;;;39.45;3.05;;;;;;;21.29;54.38;100309.63;7310121;19;129039;-39
2023/10/06 10:15:52;;;;;;;201.27;11.70;;;;;;;21.29;53.95;100304.41;7308292;19;129876;-38
2023/10/06 10:18:29;;;;;;;40.45;3.25;;;;;;;21.33;54.16;100295.38;7314024;19;130934;-37
2023/10/06 10:20:59;;;;;;;335.00;19.10;;;;;;;21.32;53.73;100288.47;7307513;19;129724;-38
2023/10/06 10:23:26;;;;;;;40.97;3.15;;;;;;;21.35;53.10;100293.47;7311172;19;130073;-39
2023/10/06 10:25:51;;;;;;;48.83;3.47;;;;;;;21.34;53.53;100283.09;7311757;19;130185;-39
2023/10/06 10:28:27;;;;;;;91.20;5.30;;;;;;;21.24;53.71;100261.25;7303366;19;130273;-37
2023/10/06 10:30:59;;;;;;;110.47;6.72;;;;;;;21.38;53.76;100287.16;7307443;19;129420;-39
2023/10/06 10:33:34;;;;;;;204.50;12.07;;;;;;;21.39;54.33;100289.66;7307604;19;129691;-39
2023/10/06 10:36:12;;;;;;;87.05;5.68;;;;;;;21.35;55.61;100280.41;7309924;19;131053;-38
2023/10/06 10:38:37;;;;;;;62.47;4.30;;;;;;;21.40;54.09;100261.72;7307626;19;130553;-39
2023/10/06 10:41:07;;;;;;;61.38;4.15;;;;;;;21.38;54.33;100256.59;7312842;19;129193;-38
2023/10/06 10:43:41;;;;;;;85.75;5.28;;;;;;;21.34;55.07;100255.19;7307981;19;130074;-36
2023/10/06 10:46:08;;;;;;;45.53;3.65;;;;;;;21.41;54.34;100239.81;7310751;19;130121;-37
2023/10/06 10:48:47;;;;;;;52.65;4.00;;;;;;;21.40;54.98;100233.75;7308276;19;130706;-39
2023/10/06 10:51:13;;;;;;;211.30;12.80;;;;;;;21.28;54.68;100203.38;7300613;19;130266;-34
2023/10/06 10:53:45;;;;;;;73.80;4.63;;;;;;;21.37;55.39;100223.53;7308994;19;130430;-35
2023/10/06 10:56:43;;;;;;;96.15;5.82;;;;;;;21.36;56.38;100216.66;7309298;19;132684;-35
2023/10/06 10:59:09;;;;;;;77.15;5.15;;;;;;;21.24;54.90;100186.25;7308472;19;130507;-38
2023/10/06 11:01:41;;;;;;;112.50;6.87;;;;;;;21.37;56.21;100218.31;7308829;19;129628;-38
2023/10/06 11:04:13;;;;;;;40.17;3.40;;;;;;;21.40;55.15;100207.59;7310971;19;129506;-38
2023/10/06 11:07:01;;;;;;;79.15;5.55;;;;;;;21.38;55.89;100209.53;7309687;19;131261;-39
2023/10/06 11:09:40;;;;;;;48.13;3.63;;;;;;;21.37;53.44;100207.84;7311048;19;130506;-39
2023/10/06 11:12:18;;;;;;;66.30;4.65;;;;;;;21.37;55.34;100197.38;7309998;19;129155;-38
2023/10/06 11:14:44;;;;;;;56.75;4.05;;;;;;;21.21;54.18;100183.03;7311777;19;129048;-39
2023/10/06 11:17:12;;;;;;;84.85;5.60;;;;;;;21.33;53.31;100190.75;7310067;19;130954;-37
2023/10/06 11:19:38;;;;;;;41.33;3.50;;;;;;;21.32;53.38;100186.47;7309741;19;130194;-37
2023/10/06 11:22:19;;;;;;;47.53;3.88;;;;;;;21.15;54.50;100160.84;7309788;19;129054;-39
2023/10/06 11:24:46;;;;;;;32.58;2.88;;;;;;;21.27;53.62;100186.00;7310754;19;129064;-37